Time;durP1;ratioP1;P1;durP2;ratioP2;P2;SDS_P1;SDS_P2;PMS_P1;PMS_P2;Temp;Humidity;BMP_temperature;BMP_pressure;BME280_temperature;BME280_humidity;BME280_pressure;Samples;Min_cycle;Max_cycle;Signal;HPM_P1;HPM_P2
2023/01/31 00:01:40;;;;;;;15.18;10.18;;;;;;;;;;6160882;23;20029;-83
2023/01/31 00:04:12;;;;;;;14.85;10.38;;;;;;;;;;6127091;23;20032;-83
2023/01/31 00:06:43;;;;;;;11.65;9.38;;;;;;;;;;6161906;23;20013;-83
2023/01/31 00:09:14;;;;;;;19.33;12.65;;;;;;;;;;6154213;23;20358;-83
2023/01/31 00:11:41;;;;;;;13.95;9.68;;;;;;;;;;6152192;23;20010;-83
2023/01/31 00:14:10;;;;;;;15.93;11.70;;;;;;;;;;6153196;23;20021;-83
2023/01/31 00:16:41;;;;;;;13.68;10.07;;;;;;;;;;6150284;23;20020;-83
2023/01/31 00:19:08;;;;;;;18.90;11.68;;;;;;;;;;6153555;23;20343;-83
2023/01/31 00:21:35;;;;;;;17.67;11.05;;;;;;;;;;6152460;23;20358;-83
2023/01/31 00:24:08;;;;;;;16.17;12.13;;;;;;;;;;6126301;23;20017;-83
2023/01/31 00:26:35;;;;;;;15.93;11.48;;;;;;;;;;6126023;23;20335;-83
2023/01/31 00:29:04;;;;;;;15.20;12.35;;;;;;;;;;6152301;23;20018;-83
2023/01/31 00:31:33;;;;;;;16.55;11.55;;;;;;;;;;6149308;23;20013;-83
2023/01/31 00:34:04;;;;;;;16.30;11.43;;;;;;;;;;6127432;23;20021;-83
2023/01/31 00:36:34;;;;;;;19.27;12.18;;;;;;;;;;6151263;23;20033;-83
2023/01/31 00:39:02;;;;;;;19.30;12.77;;;;;;;;;;6151649;23;20209;-82
2023/01/31 00:41:31;;;;;;;15.95;11.55;;;;;;;;;;6161496;23;20017;-83
2023/01/31 00:43:58;;;;;;;18.30;11.02;;;;;;;;;;6150110;23;20022;-83
2023/01/31 00:46:26;;;;;;;15.52;12.88;;;;;;;;;;6151346;23;20017;-83
2023/01/31 00:48:56;;;;;;;18.48;13.10;;;;;;;;;;6126762;23;20025;-83
2023/01/31 00:51:25;;;;;;;20.02;10.80;;;;;;;;;;6161042;23;20017;-82
2023/01/31 00:53:53;;;;;;;22.85;11.15;;;;;;;;;;6125223;23;20018;-83
2023/01/31 00:56:22;;;;;;;19.60;12.57;;;;;;;;;;6124867;23;20025;-83
2023/01/31 00:58:49;;;;;;;19.60;12.48;;;;;;;;;;6152036;23;20014;-83
2023/01/31 01:01:21;;;;;;;16.90;11.70;;;;;;;;;;6160104;23;20354;-82
2023/01/31 01:03:50;;;;;;;14.75;10.68;;;;;;;;;;6126639;23;20022;-83
2023/01/31 01:06:20;;;;;;;22.08;13.50;;;;;;;;;;6149207;23;20013;-82
2023/01/31 01:08:49;;;;;;;20.85;13.18;;;;;;;;;;6150817;23;20474;-83
2023/01/31 01:11:18;;;;;;;17.30;11.60;;;;;;;;;;6125101;23;20014;-83
2023/01/31 01:13:46;;;;;;;18.05;13.38;;;;;;;;;;6127333;23;20044;-83
2023/01/31 01:16:15;;;;;;;19.92;12.82;;;;;;;;;;6125103;23;20025;-83
2023/01/31 01:18:45;;;;;;;16.05;12.02;;;;;;;;;;6155903;23;20013;-83
2023/01/31 01:21:14;;;;;;;18.77;12.52;;;;;;;;;;6160083;23;20010;-83
2023/01/31 01:23:42;;;;;;;17.77;12.93;;;;;;;;;;6126670;23;20014;-83
2023/01/31 01:26:19;;;;;;;23.33;13.10;;;;;;;;;;6159126;23;20009;-82
2023/01/31 01:28:49;;;;;;;17.25;12.60;;;;;;;;;;6153352;23;20449;-82
2023/01/31 01:31:17;;;;;;;21.23;12.90;;;;;;;;;;6126049;23;20014;-82
2023/01/31 01:33:48;;;;;;;21.67;13.35;;;;;;;;;;6150558;23;20021;-82
2023/01/31 01:36:20;;;;;;;19.05;13.90;;;;;;;;;;6159378;23;20025;-84
2023/01/31 01:38:50;;;;;;;20.55;12.82;;;;;;;;;;6124918;23;20040;-83
2023/01/31 01:41:19;;;;;;;20.45;11.18;;;;;;;;;;6150051;23;20009;-83
2023/01/31 01:43:49;;;;;;;15.02;12.07;;;;;;;;;;6151062;23;20013;-83
2023/01/31 01:46:19;;;;;;;16.63;12.38;;;;;;;;;;6149645;23;20018;-83
2023/01/31 01:48:48;;;;;;;14.95;11.02;;;;;;;;;;6125515;23;20025;-83
2023/01/31 01:51:19;;;;;;;17.98;11.45;;;;;;;;;;6124981;23;20013;-83
2023/01/31 01:53:48;;;;;;;17.92;10.95;;;;;;;;;;6126580;23;20018;-82
2023/01/31 01:56:21;;;;;;;15.60;12.95;;;;;;;;;;6159372;23;20350;-83
2023/01/31 01:58:55;;;;;;;20.17;13.57;;;;;;;;;;6125870;23;20028;-83
2023/01/31 02:01:26;;;;;;;19.90;12.48;;;;;;;;;;6160481;23;20025;-82
2023/01/31 02:03:54;;;;;;;18.25;13.93;;;;;;;;;;6126319;23;20017;-83
2023/01/31 02:06:23;;;;;;;20.15;13.23;;;;;;;;;;6149300;23;20028;-83
2023/01/31 02:08:55;;;;;;;20.85;11.40;;;;;;;;;;6152891;23;20021;-82
2023/01/31 02:11:28;;;;;;;20.30;12.27;;;;;;;;;;6124217;23;20024;-83
2023/01/31 02:14:03;;;;;;;17.30;11.57;;;;;;;;;;6128034;23;20017;-83
2023/01/31 02:16:36;;;;;;;16.48;11.07;;;;;;;;;;6125965;23;20485;-83
2023/01/31 02:19:10;;;;;;;22.20;12.60;;;;;;;;;;6123925;23;20358;-82
2023/01/31 02:22:13;;;;;;;13.90;10.70;;;;;;;;;;6125173;23;20021;-83
2023/01/31 02:25:18;;;;;;;20.30;13.73;;;;;;;;;;6148411;23;20017;-83
2023/01/31 02:28:37;;;;;;;14.10;11.38;;;;;;;;;;6156897;23;20024;-83
2023/01/31 02:31:40;;;;;;;22.67;11.10;;;;;;;;;;6148944;23;20350;-83
2023/01/31 02:34:12;;;;;;;19.90;12.32;;;;;;;;;;6160548;23;20029;-83
2023/01/31 02:36:51;;;;;;;17.67;12.55;;;;;;;;;;6159441;23;20484;-83
2023/01/31 02:39:28;;;;;;;19.38;12.45;;;;;;;;;;6124744;23;20381;-83
2023/01/31 02:42:06;;;;;;;16.70;10.15;;;;;;;;;;6149639;23;20375;-82
2023/01/31 02:47:31;;;;;;;19.48;12.43;;;;;;;;;;6126243;23;20024;-83
2023/01/31 02:50:04;;;;;;;17.05;9.90;;;;;;;;;;6157976;23;20354;-83
2023/01/31 02:52:39;;;;;;;16.63;11.25;;;;;;;;;;6127045;23;20021;-83
2023/01/31 02:57:58;;;;;;;20.50;11.82;;;;;;;;;;6157863;23;20014;-83
2023/01/31 03:00:26;;;;;;;20.73;11.95;;;;;;;;;;6157779;23;20026;-82
2023/01/31 03:02:57;;;;;;;14.90;10.20;;;;;;;;;;6126079;23;20022;-82
2023/01/31 03:05:28;;;;;;;15.38;11.63;;;;;;;;;;6124027;23;20018;-83
2023/01/31 03:07:58;;;;;;;19.35;12.50;;;;;;;;;;6125116;23;20366;-83
2023/01/31 03:10:42;;;;;;;20.63;10.68;;;;;;;;;;6159582;23;20060;-82
2023/01/31 03:13:12;;;;;;;;;;;;;;;;;;6151110;23;20014;-83
2023/01/31 03:18:42;;;;;;;22.00;13.18;;;;;;;;;;6152455;23;20028;-84
2023/01/31 03:21:13;;;;;;;22.15;11.93;;;;;;;;;;6160656;23;20013;-83
2023/01/31 03:23:47;;;;;;;20.05;12.18;;;;;;;;;;6163247;23;20020;-83
2023/01/31 03:26:16;;;;;;;20.98;11.63;;;;;;;;;;6152694;23;20458;-83
2023/01/31 03:28:44;;;;;;;18.08;11.40;;;;;;;;;;6127534;23;20041;-83
2023/01/31 03:31:16;;;;;;;14.98;12.68;;;;;;;;;;6151839;23;20202;-83
2023/01/31 03:33:48;;;;;;;18.67;12.38;;;;;;;;;;6161975;23;20013;-82
2023/01/31 03:36:26;;;;;;;18.20;12.35;;;;;;;;;;6161257;23;20009;-83
2023/01/31 03:39:09;;;;;;;17.25;12.05;;;;;;;;;;6154557;23;20037;-83
2023/01/31 03:41:47;;;;;;;19.13;11.40;;;;;;;;;;6160903;23;20450;-83
2023/01/31 03:44:23;;;;;;;23.35;12.75;;;;;;;;;;6127347;23;20335;-83
2023/01/31 03:46:53;;;;;;;17.23;11.50;;;;;;;;;;6161403;23;20014;-83
2023/01/31 03:49:21;;;;;;;25.08;13.48;;;;;;;;;;6126515;23;20394;-83
2023/01/31 03:52:00;;;;;;;14.30;10.60;;;;;;;;;;6161581;23;20338;-83
2023/01/31 03:54:33;;;;;;;16.65;12.43;;;;;;;;;;6127953;23;20017;-83
2023/01/31 03:57:05;;;;;;;15.48;11.70;;;;;;;;;;6160358;23;20020;-83
2023/01/31 03:59:38;;;;;;;15.07;12.13;;;;;;;;;;6128575;23;20028;-83
2023/01/31 04:02:07;;;;;;;20.58;13.80;;;;;;;;;;6149522;23;20013;-83
2023/01/31 04:04:40;;;;;;;20.15;14.25;;;;;;;;;;6162430;23;20014;-82
2023/01/31 04:07:12;;;;;;;;;;;;;;;;;;6126984;23;20075;-83
2023/01/31 04:09:40;;;;;;;19.60;13.02;;;;;;;;;;6126271;23;19921;-83
2023/01/31 04:12:12;;;;;;;18.60;11.93;;;;;;;;;;6153344;23;20009;-83
2023/01/31 04:14:39;;;;;;;16.10;10.55;;;;;;;;;;6150359;23;20017;-82
2023/01/31 04:17:06;;;;;;;15.93;11.10;;;;;;;;;;6152520;23;20013;-83
2023/01/31 04:19:33;;;;;;;16.77;11.68;;;;;;;;;;6151061;23;20014;-83
2023/01/31 04:22:00;;;;;;;15.43;9.98;;;;;;;;;;6161089;23;20021;-82
2023/01/31 04:24:29;;;;;;;19.85;12.05;;;;;;;;;;6151598;23;20010;-82
2023/01/31 04:26:58;;;;;;;14.55;11.35;;;;;;;;;;6150492;23;20033;-83
2023/01/31 04:29:26;;;;;;;18.48;11.60;;;;;;;;;;6152738;23;20021;-83
2023/01/31 04:31:55;;;;;;;27.27;11.25;;;;;;;;;;6124868;23;20493;-82
2023/01/31 04:34:22;;;;;;;17.52;12.27;;;;;;;;;;6162504;23;20040;-82
2023/01/31 04:36:52;;;;;;;18.10;11.80;;;;;;;;;;6151655;23;20025;-82
2023/01/31 04:39:19;;;;;;;17.85;10.52;;;;;;;;;;6149736;23;20022;-82
2023/01/31 04:41:53;;;;;;;22.45;14.55;;;;;;;;;;6160363;23;20383;-82
2023/01/31 04:44:23;;;;;;;20.85;12.75;;;;;;;;;;6151368;23;20026;-83
2023/01/31 04:46:50;;;;;;;21.92;11.70;;;;;;;;;;6150728;23;20070;-83
2023/01/31 04:49:17;;;;;;;22.48;13.93;;;;;;;;;;6149119;23;20358;-83
2023/01/31 04:51:47;;;;;;;22.75;13.80;;;;;;;;;;6151208;23;20075;-83
2023/01/31 04:54:16;;;;;;;18.98;11.63;;;;;;;;;;6151851;23;20013;-83
2023/01/31 04:56:43;;;;;;;20.42;13.60;;;;;;;;;;6126547;23;20018;-83
2023/01/31 04:59:12;;;;;;;22.00;12.45;;;;;;;;;;6151271;23;20013;-83
2023/01/31 05:01:40;;;;;;;18.70;11.20;;;;;;;;;;6150101;23;20017;-82
2023/01/31 05:04:08;;;;;;;20.05;12.02;;;;;;;;;;6154270;23;20021;-83
2023/01/31 05:06:35;;;;;;;20.50;13.90;;;;;;;;;;6125873;23;20358;-83
2023/01/31 05:09:02;;;;;;;17.90;11.57;;;;;;;;;;6150007;23;20029;-83
2023/01/31 05:11:29;;;;;;;19.77;12.25;;;;;;;;;;6122883;23;20024;-83
2023/01/31 05:13:59;;;;;;;16.27;10.13;;;;;;;;;;6151683;23;20009;-84
2023/01/31 05:16:30;;;;;;;19.23;11.70;;;;;;;;;;6150172;23;20020;-83
2023/01/31 05:19:00;;;;;;;16.23;12.55;;;;;;;;;;6126190;23;20027;-83
2023/01/31 05:21:29;;;;;;;22.27;14.40;;;;;;;;;;6151071;23;20020;-83
2023/01/31 05:23:57;;;;;;;21.70;12.07;;;;;;;;;;6151702;23;20014;-83
2023/01/31 05:26:24;;;;;;;19.10;12.82;;;;;;;;;;6124056;23;20025;-83
2023/01/31 05:28:51;;;;;;;21.98;15.13;;;;;;;;;;6123336;23;20021;-83
2023/01/31 05:31:18;;;;;;;19.55;13.75;;;;;;;;;;6150180;23;20485;-83
2023/01/31 05:33:47;;;;;;;15.38;11.75;;;;;;;;;;6151235;23;20500;-83
2023/01/31 05:36:14;;;;;;;27.80;15.68;;;;;;;;;;6127601;23;20018;-84
2023/01/31 05:38:44;;;;;;;20.33;15.35;;;;;;;;;;6127379;23;20072;-84
2023/01/31 05:41:11;;;;;;;23.35;16.30;;;;;;;;;;6153345;23;20013;-83
2023/01/31 05:43:41;;;;;;;26.17;15.40;;;;;;;;;;6151775;23;20017;-84
2023/01/31 05:46:08;;;;;;;20.77;14.77;;;;;;;;;;6127453;23;20060;-83
2023/01/31 05:48:35;;;;;;;27.17;17.38;;;;;;;;;;6151936;23;20017;-83
2023/01/31 05:51:06;;;;;;;27.00;14.75;;;;;;;;;;6152651;23;20021;-83
2023/01/31 05:53:33;;;;;;;20.75;13.68;;;;;;;;;;6142073;23;20020;-83
2023/01/31 05:56:01;;;;;;;16.38;12.60;;;;;;;;;;6118689;23;20032;-83
2023/01/31 05:58:28;;;;;;;17.08;13.55;;;;;;;;;;6144344;23;20018;-83
2023/01/31 06:00:57;;;;;;;20.13;14.13;;;;;;;;;;6143581;23;20028;-83
2023/01/31 06:03:25;;;;;;;24.50;13.90;;;;;;;;;;6143130;23;20466;-84
2023/01/31 06:05:53;;;;;;;23.58;15.38;;;;;;;;;;6142978;23;20369;-83
2023/01/31 06:08:24;;;;;;;24.77;14.95;;;;;;;;;;6141940;23;20103;-84
2023/01/31 06:10:51;;;;;;;24.77;16.30;;;;;;;;;;6142071;23;20033;-84
2023/01/31 06:13:18;;;;;;;25.75;17.35;;;;;;;;;;6116931;23;20018;-84
2023/01/31 06:15:45;;;;;;;27.83;17.67;;;;;;;;;;6142682;23;20025;-84
2023/01/31 06:18:13;;;;;;;19.52;14.02;;;;;;;;;;6143879;23;20040;-83
2023/01/31 06:20:40;;;;;;;24.75;17.42;;;;;;;;;;6117850;23;20017;-83
2023/01/31 06:23:07;;;;;;;18.98;13.63;;;;;;;;;;6144096;23;20025;-84
2023/01/31 06:25:36;;;;;;;31.25;16.55;;;;;;;;;;6152253;23;20013;-83
2023/01/31 06:28:04;;;;;;;24.50;15.55;;;;;;;;;;6149998;23;20481;-83
2023/01/31 06:30:34;;;;;;;24.83;15.23;;;;;;;;;;6150244;23;20017;-83
2023/01/31 06:33:01;;;;;;;23.63;15.07;;;;;;;;;;6151232;23;20013;-84
2023/01/31 06:35:29;;;;;;;24.15;14.30;;;;;;;;;;6126489;23;20024;-83
2023/01/31 06:37:56;;;;;;;24.50;16.42;;;;;;;;;;6126540;23;20075;-83
2023/01/31 06:40:23;;;;;;;25.88;15.02;;;;;;;;;;6151878;23;20325;-83
2023/01/31 06:42:54;;;;;;;22.85;16.05;;;;;;;;;;6149383;23;20032;-83
2023/01/31 06:45:24;;;;;;;34.05;16.88;;;;;;;;;;6159694;23;20014;-83
2023/01/31 06:50:51;;;;;;;20.13;13.15;;;;;;;;;;6167924;23;20013;-89
2023/01/31 06:53:19;;;;;;;19.95;14.45;;;;;;;;;;6156674;23;20021;-88
2023/01/31 06:55:48;;;;;;;29.10;17.48;;;;;;;;;;6132137;23;20053;-90
2023/01/31 06:58:18;;;;;;;25.13;15.25;;;;;;;;;;6133077;23;20526;-90
2023/01/31 07:00:48;;;;;;;22.58;16.40;;;;;;;;;;6137137;23;20040;-89
2023/01/31 07:03:18;;;;;;;24.17;14.50;;;;;;;;;;6132852;23;20013;-89
2023/01/31 07:05:48;;;;;;;19.67;13.65;;;;;;;;;;6136011;23;20512;-88
2023/01/31 07:08:16;;;;;;;23.05;15.10;;;;;;;;;;6159045;23;20018;-88
2023/01/31 07:10:44;;;;;;;21.63;16.27;;;;;;;;;;6169108;23;20024;-89
2023/01/31 07:13:12;;;;;;;25.83;18.20;;;;;;;;;;6156903;23;20020;-89
2023/01/31 07:15:42;;;;;;;22.90;16.48;;;;;;;;;;6156406;23;20017;-89
2023/01/31 07:18:10;;;;;;;26.92;16.67;;;;;;;;;;6155262;23;20018;-88
2023/01/31 07:20:50;;;;;;;18.17;14.52;;;;;;;;;;6157810;23;20018;-89
2023/01/31 07:23:19;;;;;;;29.95;17.10;;;;;;;;;;6131966;23;20031;-89
2023/01/31 07:25:47;;;;;;;29.60;18.85;;;;;;;;;;6130720;23;20032;-89
2023/01/31 07:28:17;;;;;;;25.23;19.05;;;;;;;;;;6130493;23;20030;-88
2023/01/31 07:30:52;;;;;;;23.88;14.15;;;;;;;;;;6128558;23;20020;-89
2023/01/31 07:33:23;;;;;;;24.60;16.85;;;;;;;;;;6128942;23;20017;-87
2023/01/31 07:35:51;;;;;;;24.60;16.42;;;;;;;;;;6128531;23;20025;-90
2023/01/31 07:38:21;;;;;;;26.60;18.92;;;;;;;;;;6151822;23;20040;-90
2023/01/31 07:40:48;;;;;;;23.88;17.00;;;;;;;;;;6127166;23;20032;-88
2023/01/31 07:43:16;;;;;;;26.08;20.17;;;;;;;;;;6128399;23;20025;-87
2023/01/31 07:45:49;;;;;;;21.77;15.00;;;;;;;;;;6153425;23;20041;-88
2023/01/31 07:48:22;;;;;;;26.60;17.00;;;;;;;;;;6153557;23;20499;-87
2023/01/31 07:50:53;;;;;;;21.15;14.95;;;;;;;;;;6128313;23;20582;-87
2023/01/31 07:53:24;;;;;;;23.63;15.55;;;;;;;;;;6126814;23;20017;-88
2023/01/31 07:55:54;;;;;;;34.77;18.70;;;;;;;;;;6130182;23;20070;-89
2023/01/31 07:58:21;;;;;;;23.63;18.33;;;;;;;;;;6126608;23;20022;-87
2023/01/31 08:03:40;;;;;;;26.40;15.75;;;;;;;;;;6150931;23;20029;-87
2023/01/31 08:06:12;;;;;;;23.65;14.93;;;;;;;;;;6126528;23;20017;-87
2023/01/31 08:08:41;;;;;;;24.05;15.35;;;;;;;;;;6149811;23;20017;-86
2023/01/31 08:11:09;;;;;;;34.92;15.82;;;;;;;;;;6137433;23;20036;-86
2023/01/31 08:13:37;;;;;;;24.88;15.75;;;;;;;;;;6150249;23;20021;-87
2023/01/31 08:16:10;;;;;;;25.20;14.55;;;;;;;;;;6152845;23;20032;-86
2023/01/31 08:18:43;;;;;;;30.42;17.27;;;;;;;;;;6124603;23;20017;-87
2023/01/31 08:21:12;;;;;;;22.67;13.60;;;;;;;;;;6126296;23;20028;-89
2023/01/31 08:23:39;;;;;;;23.35;15.70;;;;;;;;;;6125123;23;20021;-86
2023/01/31 08:26:12;;;;;;;22.80;14.05;;;;;;;;;;6123702;23;20022;-87
2023/01/31 08:28:43;;;;;;;18.45;13.60;;;;;;;;;;6160555;23;20024;-88
2023/01/31 08:31:19;;;;;;;18.38;12.13;;;;;;;;;;6125053;23;20560;-87
2023/01/31 08:33:51;;;;;;;;;;;;;;;;;;6124749;23;20025;-87
2023/01/31 08:36:21;;;;;;;23.98;11.40;;;;;;;;;;6124519;23;19921;-86
2023/01/31 08:38:49;;;;;;;22.80;13.05;;;;;;;;;;6148262;23;20018;-86
2023/01/31 08:41:18;;;;;;;16.25;10.18;;;;;;;;;;6124861;23;20354;-87
2023/01/31 08:43:49;;;;;;;20.42;13.52;;;;;;;;;;6125406;23;20018;-87
2023/01/31 08:46:18;;;;;;;18.80;11.18;;;;;;;;;;6126385;23;20018;-88
2023/01/31 08:48:49;;;;;;;24.63;12.57;;;;;;;;;;6150474;23;20032;-88
2023/01/31 08:51:17;;;;;;;24.65;12.90;;;;;;;;;;6151766;23;20024;-88
2023/01/31 08:53:44;;;;;;;28.38;13.57;;;;;;;;;;6102788;23;20018;-88
2023/01/31 08:56:13;;;;;;;22.30;12.60;;;;;;;;;;6098979;23;20022;-87
2023/01/31 08:58:42;;;;;;;18.48;12.05;;;;;;;;;;6077737;23;20021;-87
2023/01/31 09:01:12;;;;;;;23.50;13.63;;;;;;;;;;6079021;23;20029;-88
2023/01/31 09:03:42;;;;;;;22.70;14.20;;;;;;;;;;6077799;23;20018;-87
2023/01/31 09:06:13;;;;;;;16.40;11.43;;;;;;;;;;6076420;23;20022;-87
2023/01/31 09:08:40;;;;;;;18.77;12.02;;;;;;;;;;6075865;23;20022;-89
2023/01/31 09:11:17;;;;;;;22.70;13.20;;;;;;;;;;6098208;23;20048;-87
2023/01/31 09:13:49;;;;;;;20.20;14.63;;;;;;;;;;6048370;23;20025;-87
2023/01/31 09:16:21;;;;;;;18.52;12.95;;;;;;;;;;6106760;23;20052;-87
2023/01/31 09:18:53;;;;;;;19.58;12.75;;;;;;;;;;6095570;23;20025;-87
2023/01/31 09:21:22;;;;;;;21.08;11.82;;;;;;;;;;6096788;23;20470;-87
2023/01/31 09:23:55;;;;;;;21.50;10.93;;;;;;;;;;6096249;23;20018;-87
2023/01/31 09:26:24;;;;;;;24.48;12.48;;;;;;;;;;6070721;23;20363;-89
2023/01/31 09:28:52;;;;;;;16.17;12.30;;;;;;;;;;6073188;23;20022;-88
2023/01/31 09:31:21;;;;;;;17.30;10.60;;;;;;;;;;6099729;23;20017;-89
2023/01/31 09:33:53;;;;;;;16.52;11.27;;;;;;;;;;6073105;23;20041;-86
2023/01/31 09:36:26;;;;;;;20.30;12.27;;;;;;;;;;6075860;23;20079;-87
2023/01/31 09:38:57;;;;;;;22.63;11.73;;;;;;;;;;6109437;23;20024;-86
2023/01/31 09:41:28;;;;;;;18.20;11.95;;;;;;;;;;6099338;23;20018;-87
2023/01/31 09:44:01;;;;;;;14.10;11.02;;;;;;;;;;6105243;23;20390;-87
2023/01/31 09:46:39;;;;;;;17.25;12.25;;;;;;;;;;6075518;23;20018;-87
2023/01/31 09:49:13;;;;;;;23.70;11.48;;;;;;;;;;6074965;23;20018;-87
2023/01/31 09:51:41;;;;;;;15.30;10.90;;;;;;;;;;6081577;23;20028;-88
2023/01/31 09:54:18;;;;;;;16.65;10.13;;;;;;;;;;6160248;23;20013;-89
2023/01/31 09:57:01;;;;;;;20.38;12.50;;;;;;;;;;6153492;23;20021;-88
2023/01/31 09:59:32;;;;;;;21.95;8.90;;;;;;;;;;6163218;23;20361;-88
2023/01/31 10:02:08;;;;;;;12.35;9.63;;;;;;;;;;6163638;23;20353;-87
2023/01/31 10:04:48;;;;;;;19.70;8.93;;;;;;;;;;6128138;23;20018;-88
2023/01/31 10:07:19;;;;;;;15.77;10.25;;;;;;;;;;6128594;23;20017;-88
2023/01/31 10:12:43;;;;;;;14.32;8.38;;;;;;;;;;6153228;23;19916;-82
2023/01/31 10:23:58;;;;;;;;;;;;;;;;;;;;;
2023/01/31 10:45:17;;;;;;;13.40;8.05;;;;;;;;;;5749437;24;20032;-83
2023/01/31 10:47:48;;;;;;;12.85;8.15;;;;;;;;;;5872091;23;20021;-83
2023/01/31 10:50:19;;;;;;;10.57;8.70;;;;;;;;;;6107250;23;20488;-84
2023/01/31 10:52:58;;;;;;;15.30;8.63;;;;;;;;;;6163576;23;20346;-83
2023/01/31 10:55:46;;;;;;;17.58;9.38;;;;;;;;;;6161108;23;20009;-83
2023/01/31 10:58:14;;;;;;;13.00;9.10;;;;;;;;;;6160636;23;20018;-83
2023/01/31 11:00:46;;;;;;;16.00;9.18;;;;;;;;;;6152200;23;20021;-83
2023/01/31 11:03:16;;;;;;;14.15;8.77;;;;;;;;;;6151887;23;20028;-83
2023/01/31 11:05:47;;;;;;;10.85;7.75;;;;;;;;;;6152581;23;20013;-83
2023/01/31 11:08:25;;;;;;;17.35;9.23;;;;;;;;;;6157060;23;20494;-83
2023/01/31 11:10:54;;;;;;;8.85;6.63;;;;;;;;;;6126186;23;20197;-84
2023/01/31 11:13:24;;;;;;;13.13;8.48;;;;;;;;;;6151389;23;20335;-84
2023/01/31 11:15:55;;;;;;;16.52;8.10;;;;;;;;;;6150613;23;20025;-84
2023/01/31 11:18:27;;;;;;;19.38;9.05;;;;;;;;;;6159442;23;20025;-84
2023/01/31 11:20:55;;;;;;;11.63;6.43;;;;;;;;;;6124443;23;20013;-83
2023/01/31 11:23:24;;;;;;;10.43;6.35;;;;;;;;;;6151938;23;20028;-84
2023/01/31 11:25:55;;;;;;;16.75;6.80;;;;;;;;;;6156174;23;20349;-84
2023/01/31 11:28:33;;;;;;;9.40;5.82;;;;;;;;;;6144955;23;20024;-84
2023/01/31 11:31:03;;;;;;;15.00;8.23;;;;;;;;;;6150295;23;20465;-84
2023/01/31 11:33:42;;;;;;;10.77;6.55;;;;;;;;;;6124921;23;20030;-84
2023/01/31 11:36:14;;;;;;;12.77;7.35;;;;;;;;;;6147163;23;20351;-83
2023/01/31 11:38:41;;;;;;;14.10;6.20;;;;;;;;;;6152388;23;20110;-83
2023/01/31 11:41:35;;;;;;;15.65;8.45;;;;;;;;;;6151104;23;20028;-85
2023/01/31 11:44:12;;;;;;;10.73;6.28;;;;;;;;;;6162145;23;20013;-83
2023/01/31 11:46:50;;;;;;;8.45;7.25;;;;;;;;;;6155611;23;20018;-84
2023/01/31 11:49:24;;;;;;;14.73;7.65;;;;;;;;;;6144584;23;20430;-83
2023/01/31 11:51:51;;;;;;;11.85;8.20;;;;;;;;;;6155717;23;20024;-82
2023/01/31 11:54:24;;;;;;;10.77;7.35;;;;;;;;;;6143875;23;20013;-83
2023/01/31 11:56:55;;;;;;;11.80;8.30;;;;;;;;;;6153039;23;20021;-83
2023/01/31 11:59:26;;;;;;;11.32;8.27;;;;;;;;;;6118755;23;20029;-83
2023/01/31 12:01:57;;;;;;;14.20;9.65;;;;;;;;;;6155999;23;20021;-83
2023/01/31 12:04:32;;;;;;;12.05;9.48;;;;;;;;;;6143240;23;20022;-83
2023/01/31 12:07:02;;;;;;;14.68;10.93;;;;;;;;;;6143418;23;20029;-83
2023/01/31 12:09:41;;;;;;;14.95;9.07;;;;;;;;;;6141729;23;20029;-83
2023/01/31 12:12:24;;;;;;;16.58;9.13;;;;;;;;;;6119337;23;20029;-83
2023/01/31 12:14:56;;;;;;;13.07;8.52;;;;;;;;;;6156055;23;20018;-83
2023/01/31 12:17:29;;;;;;;13.40;8.80;;;;;;;;;;6118451;23;20026;-85
2023/01/31 12:20:11;;;;;;;11.88;7.47;;;;;;;;;;6145271;23;20017;-83
2023/01/31 12:22:46;;;;;;;16.95;9.85;;;;;;;;;;6120772;23;20358;-85
2023/01/31 12:25:19;;;;;;;15.10;8.65;;;;;;;;;;6154572;23;20478;-85
2023/01/31 12:28:00;;;;;;;13.73;8.25;;;;;;;;;;6144697;23;20025;-85
2023/01/31 12:30:59;;;;;;;14.55;8.20;;;;;;;;;;6118458;23;20333;-85
2023/01/31 12:33:38;;;;;;;11.75;9.35;;;;;;;;;;6088976;23;20030;-86
2023/01/31 12:36:15;;;;;;;13.27;8.90;;;;;;;;;;6156057;23;20025;-83
2023/01/31 12:39:00;;;;;;;14.98;8.80;;;;;;;;;;6150729;23;20017;-84
2023/01/31 12:41:33;;;;;;;14.88;10.05;;;;;;;;;;6153047;23;20014;-83
2023/01/31 12:44:16;;;;;;;10.70;6.57;;;;;;;;;;6142924;23;20340;-84
2023/01/31 12:46:54;;;;;;;11.98;8.73;;;;;;;;;;6161907;23;20014;-84
2023/01/31 12:49:35;;;;;;;13.75;8.30;;;;;;;;;;6157485;23;20017;-84
2023/01/31 12:52:15;;;;;;;12.00;6.60;;;;;;;;;;6162787;23;20018;-83
2023/01/31 12:54:52;;;;;;;11.00;7.45;;;;;;;;;;6126779;23;20354;-84
2023/01/31 12:57:29;;;;;;;6.65;5.78;;;;;;;;;;6161590;23;20366;-83
2023/01/31 13:00:03;;;;;;;13.85;7.32;;;;;;;;;;6152639;23;20018;-84
2023/01/31 13:02:38;;;;;;;15.57;7.85;;;;;;;;;;6161189;23;20018;-83
2023/01/31 13:05:14;;;;;;;12.07;7.20;;;;;;;;;;6125008;23;20492;-83
2023/01/31 13:07:47;;;;;;;10.65;5.75;;;;;;;;;;6152287;23;20022;-83
2023/01/31 13:10:28;;;;;;;15.40;6.05;;;;;;;;;;6149830;23;20025;-84
2023/01/31 13:12:57;;;;;;;8.93;6.82;;;;;;;;;;6192699;23;20017;-83
2023/01/31 13:15:30;;;;;;;10.90;7.97;;;;;;;;;;6155251;23;20017;-83
2023/01/31 13:18:05;;;;;;;7.05;5.50;;;;;;;;;;6190142;23;20341;-84
2023/01/31 13:20:37;;;;;;;10.02;7.47;;;;;;;;;;6148831;23;20013;-84
2023/01/31 13:23:10;;;;;;;14.03;6.80;;;;;;;;;;6122931;23;20021;-84
2023/01/31 13:25:39;;;;;;;10.68;6.90;;;;;;;;;;6189649;23;20013;-83
2023/01/31 13:28:15;;;;;;;10.65;6.93;;;;;;;;;;6182102;23;20013;-84
2023/01/31 13:30:50;;;;;;;11.07;7.10;;;;;;;;;;6189684;23;20024;-83
2023/01/31 13:33:31;;;;;;;11.43;7.75;;;;;;;;;;6164225;23;20020;-84
2023/01/31 13:36:19;;;;;;;12.40;7.25;;;;;;;;;;6164700;23;20484;-83
2023/01/31 13:38:48;;;;;;;12.20;7.20;;;;;;;;;;6190220;23;20017;-84
2023/01/31 13:41:20;;;;;;;10.90;7.32;;;;;;;;;;6156146;23;20123;-83
2023/01/31 13:43:48;;;;;;;8.97;5.90;;;;;;;;;;6155492;23;20017;-84
2023/01/31 13:46:20;;;;;;;14.73;6.55;;;;;;;;;;6155967;23;20271;-83
2023/01/31 13:48:51;;;;;;;10.15;6.70;;;;;;;;;;6182341;23;20020;-83
2023/01/31 13:51:23;;;;;;;8.48;6.53;;;;;;;;;;6128623;23;20064;-83
2023/01/31 13:53:57;;;;;;;9.95;6.53;;;;;;;;;;6156340;23;20043;-83
2023/01/31 13:56:27;;;;;;;;;;;;;;;;;;6192514;23;20017;-84
2023/01/31 13:58:56;;;;;;;12.23;7.03;;;;;;;;;;6183593;23;20422;-83
2023/01/31 14:01:24;;;;;;;11.32;7.38;;;;;;;;;;6155282;23;20353;-83
2023/01/31 14:04:27;;;;;;;14.55;7.90;;;;;;;;;;6155133;23;20013;-83
2023/01/31 14:07:13;;;;;;;11.48;7.35;;;;;;;;;;6192515;23;20020;-83
2023/01/31 14:09:43;;;;;;;10.35;6.75;;;;;;;;;;6152976;23;20469;-84
2023/01/31 14:12:32;;;;;;;13.48;6.05;;;;;;;;;;6153235;23;20473;-83
2023/01/31 14:15:00;;;;;;;10.63;5.65;;;;;;;;;;6164589;23;20021;-83
2023/01/31 14:17:59;;;;;;;12.60;7.50;;;;;;;;;;6156737;23;20350;-84
2023/01/31 14:20:31;;;;;;;10.82;7.32;;;;;;;;;;6156103;23;20017;-83
2023/01/31 14:23:30;;;;;;;13.88;8.15;;;;;;;;;;6180274;23;20032;-84
2023/01/31 14:25:57;;;;;;;15.98;7.60;;;;;;;;;;6155120;23;20425;-84
2023/01/31 14:28:27;;;;;;;10.50;7.53;;;;;;;;;;6126526;23;20017;-84
2023/01/31 14:30:57;;;;;;;10.98;6.78;;;;;;;;;;6128248;23;20461;-83
2023/01/31 14:33:28;;;;;;;11.73;7.38;;;;;;;;;;6151760;23;20017;-83
2023/01/31 14:36:18;;;;;;;11.73;6.68;;;;;;;;;;6179641;23;20216;-84
2023/01/31 14:39:19;;;;;;;8.98;6.88;;;;;;;;;;6186456;23;20009;-84
2023/01/31 14:42:09;;;;;;;8.77;6.43;;;;;;;;;;6154853;23;20334;-83
2023/01/31 14:44:45;;;;;;;16.90;7.95;;;;;;;;;;6185677;23;20040;-83
2023/01/31 14:47:23;;;;;;;10.43;6.65;;;;;;;;;;6190870;23;20020;-84
2023/01/31 14:50:20;;;;;;;11.05;6.43;;;;;;;;;;6182613;23;20013;-85
2023/01/31 14:52:58;;;;;;;8.38;7.22;;;;;;;;;;6125526;23;20060;-85
2023/01/31 14:55:36;;;;;;;11.38;8.15;;;;;;;;;;6151438;23;20369;-84
2023/01/31 14:58:04;;;;;;;14.15;7.78;;;;;;;;;;6131510;23;20013;-85
2023/01/31 15:00:36;;;;;;;15.60;10.43;;;;;;;;;;6190602;23;20013;-84
2023/01/31 15:03:08;;;;;;;12.32;7.03;;;;;;;;;;6132457;23;20028;-84
2023/01/31 15:05:42;;;;;;;9.80;7.50;;;;;;;;;;6177053;23;20023;-84
2023/01/31 15:08:46;;;;;;;8.70;6.97;;;;;;;;;;6155950;23;20013;-84
2023/01/31 15:11:37;;;;;;;10.23;7.78;;;;;;;;;;6151837;23;20461;-85
2023/01/31 15:14:20;;;;;;;11.85;7.30;;;;;;;;;;6167362;23;20013;-84
2023/01/31 15:16:47;;;;;;;20.08;7.88;;;;;;;;;;6192314;23;20028;-85
2023/01/31 16:11:00;;;;;;;12.65;8.82;;;;;;;;;;6177584;23;20450;-83
2023/01/31 16:13:28;;;;;;;12.15;9.02;;;;;;;;;;6179861;23;20454;-82
2023/01/31 16:15:55;;;;;;;11.00;8.63;;;;;;;;;;6156657;23;20033;-83
2023/01/31 16:18:24;;;;;;;17.80;9.63;;;;;;;;;;6182551;23;20036;-83
2023/01/31 16:20:53;;;;;;;15.07;10.18;;;;;;;;;;6150496;23;20024;-83
2023/01/31 16:23:29;;;;;;;16.20;9.40;;;;;;;;;;6153788;23;20014;-83
2023/01/31 16:26:03;;;;;;;17.58;10.63;;;;;;;;;;6162753;23;20020;-83
2023/01/31 16:28:37;;;;;;;10.30;6.68;;;;;;;;;;6163811;23;20439;-82
2023/01/31 16:31:06;;;;;;;10.05;7.25;;;;;;;;;;6150828;23;20018;-83